Main page
METAR-TAF:

METAR-TAF

Airports :

Culiacán International Airport

Culiacán, Mexico

latitude: 24-49N, longitude: 107-24W, elevation: 39 m

Current weather observation

The report was made 38 minutes ago, at 22:52 UTC
Wind 7 kt from the West
Temperature 28°C
Humidity 27%
Pressure 1015 hPa
Visibility: 16.1 km
Scattered clouds at a height of 23000 ft

METAR: MMCL 072252Z 27007KT 10SM SCT230 28/07 A2997 RMK 8/002

Time: 16:30 (23:30 UTC)

Forecast

The report was made 6 hours and 11 minutes ago, at 17:19 UTC
Forecast valid from 07 at 18 UTC to 08 at 18 UTC
Wind 8 kt from the West/Southwest
Visibility: 10 km
Clear sky
Becoming
from 08 at 02 UTC to 08 at 03 UTC
Wind 5 kt from the Northeast
From 08 at 1700 UTC
Wind 8 kt from the West/Southwest
Visibility: 10 km
Scattered clouds at a height of 25000 ft

TAF: MMCL 071719Z 0718/0818 24008KT P6SM SKC BECMG 0802/0803 04005KT FM081700 24008KT P6SM SCT250

Weather observations and forecasts of more than 4000 airports (METAR and TAF reports).

The available stations are represented by yellow and red dots on the map.

Hover mouse over dot to see the name of the station.

Then click to see weather observations and forecasts.

To change the map : click on the green buttons with a black cross to zoom in, on the green button with a dash to zoom out, or on the green arrows for adjacent maps.


METAR-TAF: